Terminal Aerodrome Forecast
Issued by NWS

Home | Current Version | Previous Version | Graphics & Text | Print | Product List | Glossary On
Versions: 1 2 3 4 5 6 7 8 9 10 11 12 13 14 15 16 17 18 19 20 21 22 23 24 25 26
000
FTUS45 KGGW 241500 AAA
TAFGDV
TAF AMD
KGDV 241547Z 2416/2512 22009KT 6SM -FZRA OVC050
     FM241800 24008KT P6SM VCSH OVC050
     FM250000 VRB05KT 6SM -SHSN OVC045
     FM250300 VRB05KT 5SM -SN OVC045
     FM250600 36010KT P6SM VCSH OVC014
      AMD LTD TO CLD VIS AND WIND=

USA.gov is the U.S. government's official web portal to all federal, state and local government web resources and services.